sensor_id;sensor_type;location;lat;lon;timestamp;temperature;humidity
66598;DHT22;57424;53.128;6.406;2023-05-07T00:00:19;21.10;53.40
66598;DHT22;57424;53.128;6.406;2023-05-07T00:02:46;21.10;53.40
66598;DHT22;57424;53.128;6.406;2023-05-07T00:05:11;21.00;53.40
66598;DHT22;57424;53.128;6.406;2023-05-07T00:07:37;21.00;53.40
66598;DHT22;57424;53.128;6.406;2023-05-07T00:10:04;21.00;53.50
66598;DHT22;57424;53.128;6.406;2023-05-07T00:12:31;21.00;53.50
66598;DHT22;57424;53.128;6.406;2023-05-07T00:14:59;21.00;53.60
66598;DHT22;57424;53.128;6.406;2023-05-07T00:17:25;21.00;53.60
66598;DHT22;57424;53.128;6.406;2023-05-07T00:19:50;20.90;53.60
66598;DHT22;57424;53.128;6.406;2023-05-07T00:22:16;20.90;53.60
66598;DHT22;57424;53.128;6.406;2023-05-07T00:24:41;20.90;53.70
66598;DHT22;57424;53.128;6.406;2023-05-07T00:27:07;20.90;53.70
66598;DHT22;57424;53.128;6.406;2023-05-07T00:29:33;20.80;53.70
66598;DHT22;57424;53.128;6.406;2023-05-07T00:31:58;20.80;53.70
66598;DHT22;57424;53.128;6.406;2023-05-07T00:34:24;20.80;53.80
66598;DHT22;57424;53.128;6.406;2023-05-07T00:36:49;20.80;53.80
66598;DHT22;57424;53.128;6.406;2023-05-07T00:39:15;20.80;53.90
66598;DHT22;57424;53.128;6.406;2023-05-07T00:41:41;20.80;53.90
66598;DHT22;57424;53.128;6.406;2023-05-07T00:44:06;20.70;53.90
66598;DHT22;57424;53.128;6.406;2023-05-07T00:46:32;20.70;54.00
66598;DHT22;57424;53.128;6.406;2023-05-07T00:48:59;20.70;54.20
66598;DHT22;57424;53.128;6.406;2023-05-07T00:51:25;20.70;54.00
66598;DHT22;57424;53.128;6.406;2023-05-07T00:53:53;20.60;53.90
66598;DHT22;57424;53.128;6.406;2023-05-07T00:56:20;20.60;54.00
66598;DHT22;57424;53.128;6.406;2023-05-07T00:58:46;20.60;54.00
66598;DHT22;57424;53.128;6.406;2023-05-07T01:01:11;20.60;54.10
66598;DHT22;57424;53.128;6.406;2023-05-07T01:03:37;20.60;54.10
66598;DHT22;57424;53.128;6.406;2023-05-07T01:06:03;20.60;54.10
66598;DHT22;57424;53.128;6.406;2023-05-07T01:08:31;20.60;54.20
66598;DHT22;57424;53.128;6.406;2023-05-07T01:10:58;20.50;54.10
66598;DHT22;57424;53.128;6.406;2023-05-07T01:13:24;20.50;54.10
66598;DHT22;57424;53.128;6.406;2023-05-07T01:15:50;20.50;54.20
66598;DHT22;57424;53.128;6.406;2023-05-07T01:18:16;20.50;54.20
66598;DHT22;57424;53.128;6.406;2023-05-07T01:20:42;20.50;54.20
66598;DHT22;57424;53.128;6.406;2023-05-07T01:23:07;20.40;54.20
66598;DHT22;57424;53.128;6.406;2023-05-07T01:25:34;20.40;54.20
66598;DHT22;57424;53.128;6.406;2023-05-07T01:28:00;20.40;54.20
66598;DHT22;57424;53.128;6.406;2023-05-07T01:30:27;20.40;54.30
66598;DHT22;57424;53.128;6.406;2023-05-07T01:33:08;20.40;54.30
66598;DHT22;57424;53.128;6.406;2023-05-07T01:35:40;20.40;54.30
66598;DHT22;57424;53.128;6.406;2023-05-07T01:38:07;20.40;54.30
66598;DHT22;57424;53.128;6.406;2023-05-07T01:40:33;20.30;54.30
66598;DHT22;57424;53.128;6.406;2023-05-07T01:43:03;20.30;54.30
66598;DHT22;57424;53.128;6.406;2023-05-07T01:45:30;20.30;54.30
66598;DHT22;57424;53.128;6.406;2023-05-07T01:47:56;20.30;54.40
66598;DHT22;57424;53.128;6.406;2023-05-07T01:50:23;20.30;54.30
66598;DHT22;57424;53.128;6.406;2023-05-07T01:52:50;20.30;54.30
66598;DHT22;57424;53.128;6.406;2023-05-07T01:55:16;20.30;54.30
66598;DHT22;57424;53.128;6.406;2023-05-07T01:57:41;20.30;54.40
66598;DHT22;57424;53.128;6.406;2023-05-07T02:00:07;20.30;54.40
66598;DHT22;57424;53.128;6.406;2023-05-07T02:02:34;20.30;54.40
66598;DHT22;57424;53.128;6.406;2023-05-07T02:05:00;20.30;54.40
66598;DHT22;57424;53.128;6.406;2023-05-07T02:07:26;20.20;54.30
66598;DHT22;57424;53.128;6.406;2023-05-07T02:09:52;20.30;54.40
66598;DHT22;57424;53.128;6.406;2023-05-07T02:12:17;20.30;54.40
66598;DHT22;57424;53.128;6.406;2023-05-07T02:14:43;20.30;54.40
66598;DHT22;57424;53.128;6.406;2023-05-07T02:17:08;20.20;54.30
66598;DHT22;57424;53.128;6.406;2023-05-07T02:19:34;20.20;54.40
66598;DHT22;57424;53.128;6.406;2023-05-07T02:22:00;20.30;54.40
66598;DHT22;57424;53.128;6.406;2023-05-07T02:24:26;20.20;54.40
66598;DHT22;57424;53.128;6.406;2023-05-07T02:26:51;20.20;54.40
66598;DHT22;57424;53.128;6.406;2023-05-07T02:29:17;20.20;54.40
66598;DHT22;57424;53.128;6.406;2023-05-07T02:31:42;20.20;54.40
66598;DHT22;57424;53.128;6.406;2023-05-07T02:34:08;20.20;54.40
66598;DHT22;57424;53.128;6.406;2023-05-07T02:36:33;20.20;54.40
66598;DHT22;57424;53.128;6.406;2023-05-07T02:38:59;20.20;54.40
66598;DHT22;57424;53.128;6.406;2023-05-07T02:41:24;20.20;54.40
66598;DHT22;57424;53.128;6.406;2023-05-07T02:43:50;20.10;54.40
66598;DHT22;57424;53.128;6.406;2023-05-07T02:46:15;20.20;54.40
66598;DHT22;57424;53.128;6.406;2023-05-07T02:48:41;20.10;54.40
66598;DHT22;57424;53.128;6.406;2023-05-07T02:51:06;20.10;54.40
66598;DHT22;57424;53.128;6.406;2023-05-07T02:53:32;20.10;54.40
66598;DHT22;57424;53.128;6.406;2023-05-07T02:55:59;20.10;54.40
66598;DHT22;57424;53.128;6.406;2023-05-07T02:58:26;20.10;54.40
66598;DHT22;57424;53.128;6.406;2023-05-07T03:00:52;20.10;54.40
66598;DHT22;57424;53.128;6.406;2023-05-07T03:03:17;20.10;54.40
66598;DHT22;57424;53.128;6.406;2023-05-07T03:05:43;20.10;54.40
66598;DHT22;57424;53.128;6.406;2023-05-07T03:08:09;20.10;54.40
66598;DHT22;57424;53.128;6.406;2023-05-07T03:10:36;20.10;54.40
66598;DHT22;57424;53.128;6.406;2023-05-07T03:13:02;20.10;54.40
66598;DHT22;57424;53.128;6.406;2023-05-07T03:15:28;20.10;54.40
66598;DHT22;57424;53.128;6.406;2023-05-07T03:17:53;20.00;54.30
66598;DHT22;57424;53.128;6.406;2023-05-07T03:20:19;20.00;54.40
66598;DHT22;57424;53.128;6.406;2023-05-07T03:22:45;20.00;54.30
66598;DHT22;57424;53.128;6.406;2023-05-07T03:25:10;20.00;54.30
66598;DHT22;57424;53.128;6.406;2023-05-07T03:27:36;20.00;54.40
66598;DHT22;57424;53.128;6.406;2023-05-07T03:30:02;20.00;54.40
66598;DHT22;57424;53.128;6.406;2023-05-07T03:32:28;20.00;54.30
66598;DHT22;57424;53.128;6.406;2023-05-07T03:34:53;20.00;54.30
66598;DHT22;57424;53.128;6.406;2023-05-07T03:37:19;20.00;54.40
66598;DHT22;57424;53.128;6.406;2023-05-07T03:39:44;20.00;54.30
66598;DHT22;57424;53.128;6.406;2023-05-07T03:42:10;20.00;54.40
66598;DHT22;57424;53.128;6.406;2023-05-07T03:44:36;20.00;54.30
66598;DHT22;57424;53.128;6.406;2023-05-07T03:47:02;20.00;54.40
66598;DHT22;57424;53.128;6.406;2023-05-07T03:49:28;20.00;54.30
66598;DHT22;57424;53.128;6.406;2023-05-07T03:51:53;20.00;54.40
66598;DHT22;57424;53.128;6.406;2023-05-07T03:54:19;20.00;54.40
66598;DHT22;57424;53.128;6.406;2023-05-07T03:56:45;20.00;54.40
66598;DHT22;57424;53.128;6.406;2023-05-07T03:59:11;19.90;54.30
66598;DHT22;57424;53.128;6.406;2023-05-07T04:01:38;19.90;54.30
66598;DHT22;57424;53.128;6.406;2023-05-07T04:04:03;19.90;54.30
66598;DHT22;57424;53.128;6.406;2023-05-07T04:06:29;19.90;54.30
66598;DHT22;57424;53.128;6.406;2023-05-07T04:08:55;19.90;54.30
66598;DHT22;57424;53.128;6.406;2023-05-07T04:11:21;19.90;54.30
66598;DHT22;57424;53.128;6.406;2023-05-07T04:13:46;19.90;54.30
66598;DHT22;57424;53.128;6.406;2023-05-07T04:16:12;19.90;54.30
66598;DHT22;57424;53.128;6.406;2023-05-07T04:18:38;19.90;54.30
66598;DHT22;57424;53.128;6.406;2023-05-07T04:21:04;19.90;54.30
66598;DHT22;57424;53.128;6.406;2023-05-07T04:23:30;19.90;54.30
66598;DHT22;57424;53.128;6.406;2023-05-07T04:25:56;19.90;54.30
66598;DHT22;57424;53.128;6.406;2023-05-07T04:28:22;19.90;54.30
66598;DHT22;57424;53.128;6.406;2023-05-07T04:30:48;19.90;54.30
66598;DHT22;57424;53.128;6.406;2023-05-07T04:33:14;19.90;54.30
66598;DHT22;57424;53.128;6.406;2023-05-07T04:35:42;19.90;54.30
66598;DHT22;57424;53.128;6.406;2023-05-07T04:38:07;19.90;54.30
66598;DHT22;57424;53.128;6.406;2023-05-07T04:40:35;19.80;54.20
66598;DHT22;57424;53.128;6.406;2023-05-07T04:43:00;19.90;54.30
66598;DHT22;57424;53.128;6.406;2023-05-07T04:45:26;19.80;54.20
66598;DHT22;57424;53.128;6.406;2023-05-07T04:47:52;19.80;54.20
66598;DHT22;57424;53.128;6.406;2023-05-07T04:50:17;19.80;54.20
66598;DHT22;57424;53.128;6.406;2023-05-07T04:52:44;19.80;54.20
66598;DHT22;57424;53.128;6.406;2023-05-07T04:55:10;19.80;54.20
66598;DHT22;57424;53.128;6.406;2023-05-07T04:57:36;19.90;54.20
66598;DHT22;57424;53.128;6.406;2023-05-07T05:00:04;19.80;54.20
66598;DHT22;57424;53.128;6.406;2023-05-07T05:02:29;19.80;54.20
66598;DHT22;57424;53.128;6.406;2023-05-07T05:04:55;19.80;54.20
66598;DHT22;57424;53.128;6.406;2023-05-07T05:07:21;19.80;54.20
66598;DHT22;57424;53.128;6.406;2023-05-07T05:09:46;19.80;54.20
66598;DHT22;57424;53.128;6.406;2023-05-07T05:12:12;19.80;54.10
66598;DHT22;57424;53.128;6.406;2023-05-07T05:14:37;19.80;54.20
66598;DHT22;57424;53.128;6.406;2023-05-07T05:17:03;19.80;54.20
66598;DHT22;57424;53.128;6.406;2023-05-07T05:19:28;19.80;54.20
66598;DHT22;57424;53.128;6.406;2023-05-07T05:21:54;19.80;54.20
66598;DHT22;57424;53.128;6.406;2023-05-07T05:24:19;19.80;54.10
66598;DHT22;57424;53.128;6.406;2023-05-07T05:26:45;19.80;54.10
66598;DHT22;57424;53.128;6.406;2023-05-07T05:29:11;19.80;54.20
66598;DHT22;57424;53.128;6.406;2023-05-07T05:31:36;19.80;54.10
66598;DHT22;57424;53.128;6.406;2023-05-07T05:34:02;19.80;54.10
66598;DHT22;57424;53.128;6.406;2023-05-07T05:36:28;19.80;54.10
66598;DHT22;57424;53.128;6.406;2023-05-07T05:38:55;19.80;54.10
66598;DHT22;57424;53.128;6.406;2023-05-07T05:41:20;19.80;54.20
66598;DHT22;57424;53.128;6.406;2023-05-07T05:43:46;19.80;54.80
66598;DHT22;57424;53.128;6.406;2023-05-07T05:46:11;19.70;54.10
66598;DHT22;57424;53.128;6.406;2023-05-07T05:48:37;19.70;54.10
66598;DHT22;57424;53.128;6.406;2023-05-07T05:51:02;19.70;54.00
66598;DHT22;57424;53.128;6.406;2023-05-07T05:53:28;19.70;54.10
66598;DHT22;57424;53.128;6.406;2023-05-07T05:55:53;19.70;54.00
66598;DHT22;57424;53.128;6.406;2023-05-07T05:58:19;19.70;54.10
66598;DHT22;57424;53.128;6.406;2023-05-07T06:00:46;19.70;54.10
66598;DHT22;57424;53.128;6.406;2023-05-07T06:03:12;19.70;54.10
66598;DHT22;57424;53.128;6.406;2023-05-07T06:05:37;19.70;54.00
66598;DHT22;57424;53.128;6.406;2023-05-07T06:08:03;19.70;54.10
66598;DHT22;57424;53.128;6.406;2023-05-07T06:10:29;19.70;54.10
66598;DHT22;57424;53.128;6.406;2023-05-07T06:12:55;19.70;54.00
66598;DHT22;57424;53.128;6.406;2023-05-07T06:15:21;19.70;54.10
66598;DHT22;57424;53.128;6.406;2023-05-07T06:17:46;19.70;54.10
66598;DHT22;57424;53.128;6.406;2023-05-07T06:20:12;19.70;54.10
66598;DHT22;57424;53.128;6.406;2023-05-07T06:22:37;19.70;54.10
66598;DHT22;57424;53.128;6.406;2023-05-07T06:25:03;19.70;54.10
66598;DHT22;57424;53.128;6.406;2023-05-07T06:27:29;19.60;54.20
66598;DHT22;57424;53.128;6.406;2023-05-07T06:29:54;19.70;54.30
66598;DHT22;57424;53.128;6.406;2023-05-07T06:32:20;19.70;54.50
66598;DHT22;57424;53.128;6.406;2023-05-07T06:34:46;19.70;54.50
66598;DHT22;57424;53.128;6.406;2023-05-07T06:37:11;19.70;54.60
66598;DHT22;57424;53.128;6.406;2023-05-07T06:39:37;19.70;54.60
66598;DHT22;57424;53.128;6.406;2023-05-07T06:42:02;19.70;54.60
66598;DHT22;57424;53.128;6.406;2023-05-07T06:44:30;19.70;54.70
66598;DHT22;57424;53.128;6.406;2023-05-07T06:46:55;19.70;54.70
66598;DHT22;57424;53.128;6.406;2023-05-07T06:49:21;19.70;54.70
66598;DHT22;57424;53.128;6.406;2023-05-07T06:51:46;19.70;54.70
66598;DHT22;57424;53.128;6.406;2023-05-07T06:54:12;19.70;54.70
66598;DHT22;57424;53.128;6.406;2023-05-07T06:56:37;19.70;54.60
66598;DHT22;57424;53.128;6.406;2023-05-07T06:59:03;19.70;54.60
66598;DHT22;57424;53.128;6.406;2023-05-07T07:01:29;19.70;54.60
66598;DHT22;57424;53.128;6.406;2023-05-07T07:03:54;19.80;54.70
66598;DHT22;57424;53.128;6.406;2023-05-07T07:06:20;19.80;54.70
66598;DHT22;57424;53.128;6.406;2023-05-07T07:08:46;19.80;54.70
66598;DHT22;57424;53.128;6.406;2023-05-07T07:11:11;19.80;54.80
66598;DHT22;57424;53.128;6.406;2023-05-07T07:13:37;19.80;54.80
66598;DHT22;57424;53.128;6.406;2023-05-07T07:16:03;19.80;54.80
66598;DHT22;57424;53.128;6.406;2023-05-07T07:18:28;19.80;54.80
66598;DHT22;57424;53.128;6.406;2023-05-07T07:20:54;19.80;54.90
66598;DHT22;57424;53.128;6.406;2023-05-07T07:23:20;19.80;54.90
66598;DHT22;57424;53.128;6.406;2023-05-07T07:25:46;19.80;54.90
66598;DHT22;57424;53.128;6.406;2023-05-07T07:28:12;19.80;55.00
66598;DHT22;57424;53.128;6.406;2023-05-07T07:30:38;19.80;54.90
66598;DHT22;57424;53.128;6.406;2023-05-07T07:33:04;19.80;55.60
66598;DHT22;57424;53.128;6.406;2023-05-07T07:35:31;19.80;54.90
66598;DHT22;57424;53.128;6.406;2023-05-07T07:37:57;19.80;54.90
66598;DHT22;57424;53.128;6.406;2023-05-07T07:40:22;19.80;54.90
66598;DHT22;57424;53.128;6.406;2023-05-07T07:42:48;19.80;54.90
66598;DHT22;57424;53.128;6.406;2023-05-07T07:45:14;19.80;54.80
66598;DHT22;57424;53.128;6.406;2023-05-07T07:47:40;19.80;54.90
66598;DHT22;57424;53.128;6.406;2023-05-07T07:50:06;19.80;54.80
66598;DHT22;57424;53.128;6.406;2023-05-07T07:52:32;19.80;54.90
66598;DHT22;57424;53.128;6.406;2023-05-07T07:54:58;19.80;54.80
66598;DHT22;57424;53.128;6.406;2023-05-07T07:57:23;19.80;54.80
66598;DHT22;57424;53.128;6.406;2023-05-07T07:59:50;19.80;54.80
66598;DHT22;57424;53.128;6.406;2023-05-07T08:02:16;19.80;54.80
66598;DHT22;57424;53.128;6.406;2023-05-07T08:04:42;19.80;54.90
66598;DHT22;57424;53.128;6.406;2023-05-07T08:07:09;19.80;54.90
66598;DHT22;57424;53.128;6.406;2023-05-07T08:09:35;19.80;55.70
66598;DHT22;57424;53.128;6.406;2023-05-07T08:12:01;19.90;55.10
66598;DHT22;57424;53.128;6.406;2023-05-07T08:14:27;19.90;55.10
66598;DHT22;57424;53.128;6.406;2023-05-07T08:16:54;19.90;55.10
66598;DHT22;57424;53.128;6.406;2023-05-07T08:19:19;19.90;55.10
66598;DHT22;57424;53.128;6.406;2023-05-07T08:21:45;19.90;55.80
66598;DHT22;57424;53.128;6.406;2023-05-07T08:24:13;19.90;55.20
66598;DHT22;57424;53.128;6.406;2023-05-07T08:26:39;19.90;55.20
66598;DHT22;57424;53.128;6.406;2023-05-07T08:29:05;19.90;55.20
66598;DHT22;57424;53.128;6.406;2023-05-07T08:31:31;20.00;55.10
66598;DHT22;57424;53.128;6.406;2023-05-07T08:33:57;20.00;55.10
66598;DHT22;57424;53.128;6.406;2023-05-07T08:36:23;20.00;55.00
66598;DHT22;57424;53.128;6.406;2023-05-07T08:38:48;20.00;55.10
66598;DHT22;57424;53.128;6.406;2023-05-07T08:41:15;20.00;55.00
66598;DHT22;57424;53.128;6.406;2023-05-07T08:43:41;20.00;54.90
66598;DHT22;57424;53.128;6.406;2023-05-07T08:46:09;20.10;55.00
66598;DHT22;57424;53.128;6.406;2023-05-07T08:48:36;20.10;54.90
66598;DHT22;57424;53.128;6.406;2023-05-07T08:51:02;20.10;54.90
66598;DHT22;57424;53.128;6.406;2023-05-07T08:53:27;20.10;54.80
66598;DHT22;57424;53.128;6.406;2023-05-07T08:55:53;20.10;54.80
66598;DHT22;57424;53.128;6.406;2023-05-07T08:58:19;20.10;54.70
66598;DHT22;57424;53.128;6.406;2023-05-07T09:00:44;20.10;54.70
66598;DHT22;57424;53.128;6.406;2023-05-07T09:03:10;20.20;54.70
66598;DHT22;57424;53.128;6.406;2023-05-07T09:05:39;20.20;54.70
66598;DHT22;57424;53.128;6.406;2023-05-07T09:08:07;20.20;54.60
66598;DHT22;57424;53.128;6.406;2023-05-07T09:10:33;20.20;54.60
66598;DHT22;57424;53.128;6.406;2023-05-07T09:12:59;20.20;54.50
66598;DHT22;57424;53.128;6.406;2023-05-07T09:15:26;20.20;54.50
66598;DHT22;57424;53.128;6.406;2023-05-07T09:17:52;20.20;54.40
66598;DHT22;57424;53.128;6.406;2023-05-07T09:20:17;20.20;54.40
66598;DHT22;57424;53.128;6.406;2023-05-07T09:22:43;20.20;54.40
66598;DHT22;57424;53.128;6.406;2023-05-07T09:25:09;20.30;54.40
66598;DHT22;57424;53.128;6.406;2023-05-07T09:27:35;20.20;54.30
66598;DHT22;57424;53.128;6.406;2023-05-07T09:30:07;20.20;54.40
66598;DHT22;57424;53.128;6.406;2023-05-07T09:32:37;20.30;54.40
66598;DHT22;57424;53.128;6.406;2023-05-07T09:35:06;20.30;54.40
66598;DHT22;57424;53.128;6.406;2023-05-07T09:37:32;20.30;54.50
66598;DHT22;57424;53.128;6.406;2023-05-07T09:39:58;20.30;54.50
66598;DHT22;57424;53.128;6.406;2023-05-07T09:42:27;20.30;54.60
66598;DHT22;57424;53.128;6.406;2023-05-07T09:44:52;20.30;54.60
66598;DHT22;57424;53.128;6.406;2023-05-07T09:47:19;20.30;54.60
66598;DHT22;57424;53.128;6.406;2023-05-07T09:49:47;20.30;54.60
66598;DHT22;57424;53.128;6.406;2023-05-07T09:52:13;20.30;54.50
66598;DHT22;57424;53.128;6.406;2023-05-07T09:54:40;20.40;54.60
66598;DHT22;57424;53.128;6.406;2023-05-07T09:57:10;20.40;54.60
66598;DHT22;57424;53.128;6.406;2023-05-07T09:59:37;20.40;54.50
66598;DHT22;57424;53.128;6.406;2023-05-07T10:02:04;20.40;54.50
66598;DHT22;57424;53.128;6.406;2023-05-07T10:04:31;20.50;54.60
66598;DHT22;57424;53.128;6.406;2023-05-07T10:06:57;20.50;54.50
66598;DHT22;57424;53.128;6.406;2023-05-07T10:09:25;20.50;54.50
66598;DHT22;57424;53.128;6.406;2023-05-07T10:11:51;20.50;54.60
66598;DHT22;57424;53.128;6.406;2023-05-07T10:14:17;20.50;54.50
66598;DHT22;57424;53.128;6.406;2023-05-07T10:16:44;20.50;54.50
66598;DHT22;57424;53.128;6.406;2023-05-07T10:19:10;20.60;54.50
66598;DHT22;57424;53.128;6.406;2023-05-07T10:21:36;20.60;54.50
66598;DHT22;57424;53.128;6.406;2023-05-07T10:24:09;20.60;54.50
66598;DHT22;57424;53.128;6.406;2023-05-07T10:26:43;20.60;54.50
66598;DHT22;57424;53.128;6.406;2023-05-07T10:29:18;20.70;54.60
66598;DHT22;57424;53.128;6.406;2023-05-07T10:34:26;20.70;54.50
66598;DHT22;57424;53.128;6.406;2023-05-07T10:36:54;20.70;54.50
66598;DHT22;57424;53.128;6.406;2023-05-07T10:39:21;20.70;54.60
66598;DHT22;57424;53.128;6.406;2023-05-07T10:41:47;20.70;54.50
66598;DHT22;57424;53.128;6.406;2023-05-07T10:44:25;20.80;54.60
66598;DHT22;57424;53.128;6.406;2023-05-07T10:47:11;20.80;54.60
66598;DHT22;57424;53.128;6.406;2023-05-07T10:54:39;20.80;54.60
66598;DHT22;57424;53.128;6.406;2023-05-07T10:57:33;20.80;54.50
66598;DHT22;57424;53.128;6.406;2023-05-07T11:00:01;20.90;54.50
66598;DHT22;57424;53.128;6.406;2023-05-07T11:03:04;20.90;54.40
66598;DHT22;57424;53.128;6.406;2023-05-07T11:05:32;20.90;54.40
66598;DHT22;57424;53.128;6.406;2023-05-07T11:08:02;20.90;54.30
66598;DHT22;57424;53.128;6.406;2023-05-07T11:10:50;20.90;54.30
66598;DHT22;57424;53.128;6.406;2023-05-07T11:13:17;20.90;54.30
66598;DHT22;57424;53.128;6.406;2023-05-07T11:15:47;20.90;54.20
66598;DHT22;57424;53.128;6.406;2023-05-07T11:18:17;20.90;54.90
66598;DHT22;57424;53.128;6.406;2023-05-07T11:26:02;21.00;54.10
66598;DHT22;57424;53.128;6.406;2023-05-07T11:28:28;20.90;54.10
66598;DHT22;57424;53.128;6.406;2023-05-07T11:30:55;21.00;54.10
66598;DHT22;57424;53.128;6.406;2023-05-07T11:33:22;21.00;54.00
66598;DHT22;57424;53.128;6.406;2023-05-07T11:35:48;21.00;54.00
66598;DHT22;57424;53.128;6.406;2023-05-07T11:38:13;21.00;54.10
66598;DHT22;57424;53.128;6.406;2023-05-07T11:40:55;21.00;54.10
66598;DHT22;57424;53.128;6.406;2023-05-07T11:43:21;21.00;54.20
66598;DHT22;57424;53.128;6.406;2023-05-07T11:45:47;21.00;54.60
66598;DHT22;57424;53.128;6.406;2023-05-07T11:48:13;21.00;54.10
66598;DHT22;57424;53.128;6.406;2023-05-07T11:51:01;21.00;54.10
66598;DHT22;57424;53.128;6.406;2023-05-07T11:53:33;21.00;54.00
66598;DHT22;57424;53.128;6.406;2023-05-07T11:56:00;21.00;54.00
66598;DHT22;57424;53.128;6.406;2023-05-07T11:58:26;21.00;54.00
66598;DHT22;57424;53.128;6.406;2023-05-07T12:00:53;21.00;54.00
66598;DHT22;57424;53.128;6.406;2023-05-07T12:03:19;21.00;54.00
66598;DHT22;57424;53.128;6.406;2023-05-07T12:05:46;21.00;54.00
66598;DHT22;57424;53.128;6.406;2023-05-07T12:08:15;21.00;54.00
66598;DHT22;57424;53.128;6.406;2023-05-07T12:10:44;21.00;54.00
66598;DHT22;57424;53.128;6.406;2023-05-07T12:13:17;21.00;54.00
66598;DHT22;57424;53.128;6.406;2023-05-07T12:15:43;21.00;54.00
66598;DHT22;57424;53.128;6.406;2023-05-07T12:18:10;20.90;54.00
66598;DHT22;57424;53.128;6.406;2023-05-07T12:20:36;20.90;54.10
66598;DHT22;57424;53.128;6.406;2023-05-07T12:23:02;21.00;54.10
66598;DHT22;57424;53.128;6.406;2023-05-07T12:25:34;20.90;54.00
66598;DHT22;57424;53.128;6.406;2023-05-07T12:28:00;21.00;54.00
66598;DHT22;57424;53.128;6.406;2023-05-07T12:30:26;20.90;54.00
66598;DHT22;57424;53.128;6.406;2023-05-07T12:32:53;21.00;54.10
66598;DHT22;57424;53.128;6.406;2023-05-07T12:35:27;20.90;54.00
66598;DHT22;57424;53.128;6.406;2023-05-07T12:37:59;20.90;54.00
66598;DHT22;57424;53.128;6.406;2023-05-07T12:40:36;21.00;54.10
66598;DHT22;57424;53.128;6.406;2023-05-07T12:43:02;21.00;54.20
66598;DHT22;57424;53.128;6.406;2023-05-07T13:20:17;20.60;53.90
66598;DHT22;57424;53.128;6.406;2023-05-07T13:22:43;20.60;53.10
66598;DHT22;57424;53.128;6.406;2023-05-07T13:25:09;20.50;53.90
66598;DHT22;57424;53.128;6.406;2023-05-07T13:27:34;20.50;54.50
66598;DHT22;57424;53.128;6.406;2023-05-07T13:30:04;20.50;55.10
66598;DHT22;57424;53.128;6.406;2023-05-07T13:32:30;20.50;55.40
66598;DHT22;57424;53.128;6.406;2023-05-07T13:34:55;20.50;55.70
66598;DHT22;57424;53.128;6.406;2023-05-07T13:37:21;20.50;55.80
66598;DHT22;57424;53.128;6.406;2023-05-07T13:39:46;20.50;56.00
66598;DHT22;57424;53.128;6.406;2023-05-07T13:42:12;20.50;56.10
66598;DHT22;57424;53.128;6.406;2023-05-07T13:44:37;20.50;56.10
66598;DHT22;57424;53.128;6.406;2023-05-07T13:47:03;20.50;56.20
66598;DHT22;57424;53.128;6.406;2023-05-07T13:49:28;20.50;56.20
66598;DHT22;57424;53.128;6.406;2023-05-07T13:51:55;20.60;56.30
66598;DHT22;57424;53.128;6.406;2023-05-07T13:54:21;20.60;56.20
66598;DHT22;57424;53.128;6.406;2023-05-07T13:56:46;20.60;56.20
66598;DHT22;57424;53.128;6.406;2023-05-07T13:59:12;20.60;56.20
66598;DHT22;57424;53.128;6.406;2023-05-07T14:01:40;20.60;56.20
66598;DHT22;57424;53.128;6.406;2023-05-07T14:04:06;20.60;56.20
66598;DHT22;57424;53.128;6.406;2023-05-07T14:06:31;20.70;56.30
66598;DHT22;57424;53.128;6.406;2023-05-07T14:08:57;20.60;56.20
66598;DHT22;57424;53.128;6.406;2023-05-07T14:11:23;20.70;56.30
66598;DHT22;57424;53.128;6.406;2023-05-07T14:13:48;20.70;56.30
66598;DHT22;57424;53.128;6.406;2023-05-07T14:16:15;20.70;56.30
66598;DHT22;57424;53.128;6.406;2023-05-07T14:18:40;20.70;56.20
66598;DHT22;57424;53.128;6.406;2023-05-07T14:21:06;20.70;56.20
66598;DHT22;57424;53.128;6.406;2023-05-07T14:23:31;20.80;56.20
66598;DHT22;57424;53.128;6.406;2023-05-07T14:25:57;20.80;56.10
66598;DHT22;57424;53.128;6.406;2023-05-07T14:28:23;20.80;56.10
66598;DHT22;57424;53.128;6.406;2023-05-07T14:30:49;20.80;56.10
66598;DHT22;57424;53.128;6.406;2023-05-07T14:33:14;20.90;56.10
66598;DHT22;57424;53.128;6.406;2023-05-07T14:35:40;20.90;56.10
66598;DHT22;57424;53.128;6.406;2023-05-07T14:38:05;20.90;56.00
66598;DHT22;57424;53.128;6.406;2023-05-07T14:40:31;20.90;56.00
66598;DHT22;57424;53.128;6.406;2023-05-07T14:42:56;20.90;55.90
66598;DHT22;57424;53.128;6.406;2023-05-07T14:45:23;20.90;55.90
66598;DHT22;57424;53.128;6.406;2023-05-07T14:47:48;20.90;55.80
66598;DHT22;57424;53.128;6.406;2023-05-07T14:50:14;20.90;55.80
66598;DHT22;57424;53.128;6.406;2023-05-07T14:52:40;21.00;55.80
66598;DHT22;57424;53.128;6.406;2023-05-07T14:55:05;20.90;55.70
66598;DHT22;57424;53.128;6.406;2023-05-07T14:57:31;21.00;55.70
66598;DHT22;57424;53.128;6.406;2023-05-07T15:00:03;21.00;55.80
66598;DHT22;57424;53.128;6.406;2023-05-07T15:02:29;21.00;55.70
66598;DHT22;57424;53.128;6.406;2023-05-07T15:04:55;21.00;55.70
66598;DHT22;57424;53.128;6.406;2023-05-07T15:07:21;21.00;55.70
66598;DHT22;57424;53.128;6.406;2023-05-07T15:09:46;21.00;55.70
66598;DHT22;57424;53.128;6.406;2023-05-07T15:12:13;21.00;55.70
66598;DHT22;57424;53.128;6.406;2023-05-07T15:14:39;21.00;55.70
66598;DHT22;57424;53.128;6.406;2023-05-07T15:17:05;21.10;55.70
66598;DHT22;57424;53.128;6.406;2023-05-07T15:19:30;21.00;55.70
66598;DHT22;57424;53.128;6.406;2023-05-07T15:22:00;21.00;55.70
66598;DHT22;57424;53.128;6.406;2023-05-07T15:24:31;21.10;55.80
66598;DHT22;57424;53.128;6.406;2023-05-07T15:26:57;21.10;55.80
66598;DHT22;57424;53.128;6.406;2023-05-07T15:29:26;21.10;55.70
66598;DHT22;57424;53.128;6.406;2023-05-07T15:31:52;21.10;55.80
66598;DHT22;57424;53.128;6.406;2023-05-07T15:34:17;21.10;55.90
66598;DHT22;57424;53.128;6.406;2023-05-07T15:36:43;21.10;55.80
66598;DHT22;57424;53.128;6.406;2023-05-07T15:39:09;21.10;56.00
66598;DHT22;57424;53.128;6.406;2023-05-07T15:41:35;21.10;56.20
66598;DHT22;57424;53.128;6.406;2023-05-07T15:44:02;21.10;56.20
66598;DHT22;57424;53.128;6.406;2023-05-07T15:46:28;21.10;56.40
66598;DHT22;57424;53.128;6.406;2023-05-07T15:48:53;21.10;56.50
66598;DHT22;57424;53.128;6.406;2023-05-07T15:51:19;21.10;56.50
66598;DHT22;57424;53.128;6.406;2023-05-07T15:53:45;21.10;56.50
66598;DHT22;57424;53.128;6.406;2023-05-07T15:56:12;21.10;56.60
66598;DHT22;57424;53.128;6.406;2023-05-07T15:58:37;21.10;56.50
66598;DHT22;57424;53.128;6.406;2023-05-07T16:01:03;21.10;56.50
66598;DHT22;57424;53.128;6.406;2023-05-07T16:03:29;21.10;56.40
66598;DHT22;57424;53.128;6.406;2023-05-07T16:05:56;21.10;56.40
66598;DHT22;57424;53.128;6.406;2023-05-07T16:08:25;21.10;56.40
66598;DHT22;57424;53.128;6.406;2023-05-07T16:10:51;21.10;56.40
66598;DHT22;57424;53.128;6.406;2023-05-07T16:13:17;21.10;57.10